地図

経路データ

SID SEASON NUMBER BASIN SUBBASIN NAME ISO_TIME NATURE LAT LON WMO_WIND WMO_PRES WMO_AGENCY TRACK_TYPE DIST2LAND LANDFALL IFLAG USA_AGENCY USA_ATCF_ID USA_LAT USA_LON USA_RECORD USA_STATUS USA_WIND USA_PRES USA_SSHS USA_R34_NE USA_R34_SE USA_R34_SW USA_R34_NW USA_R50_NE USA_R50_SE USA_R50_SW USA_R50_NW USA_R64_NE USA_R64_SE USA_R64_SW USA_R64_NW USA_POCI USA_ROCI USA_RMW USA_EYE TOKYO_LAT TOKYO_LON TOKYO_GRADE TOKYO_WIND TOKYO_PRES TOKYO_R50_DIR TOKYO_R50_LONG TOKYO_R50_SHORT TOKYO_R30_DIR TOKYO_R30_LONG TOKYO_R30_SHORT TOKYO_LAND CMA_LAT CMA_LON CMA_CAT CMA_WIND CMA_PRES HKO_LAT HKO_LON HKO_CAT HKO_WIND HKO_PRES NEWDELHI_LAT NEWDELHI_LON NEWDELHI_GRADE NEWDELHI_WIND NEWDELHI_PRES NEWDELHI_CI NEWDELHI_DP NEWDELHI_POCI REUNION_LAT REUNION_LON REUNION_TYPE REUNION_WIND REUNION_PRES REUNION_TNUM REUNION_CI REUNION_RMW REUNION_R34_NE REUNION_R34_SE REUNION_R34_SW REUNION_R34_NW REUNION_R50_NE REUNION_R50_SE REUNION_R50_SW REUNION_R50_NW REUNION_R64_NE REUNION_R64_SE REUNION_R64_SW REUNION_R64_NW BOM_LAT BOM_LON BOM_TYPE BOM_WIND BOM_PRES BOM_TNUM BOM_CI BOM_RMW BOM_R34_NE BOM_R34_SE BOM_R34_SW BOM_R34_NW BOM_R50_NE BOM_R50_SE BOM_R50_SW BOM_R50_NW BOM_R64_NE BOM_R64_SE BOM_R64_SW BOM_R64_NW BOM_ROCI BOM_POCI BOM_EYE BOM_POS_METHOD BOM_PRES_METHOD NADI_LAT NADI_LON NADI_CAT NADI_WIND NADI_PRES WELLINGTON_LAT WELLINGTON_LON WELLINGTON_WIND WELLINGTON_PRES DS824_LAT DS824_LON DS824_STAGE DS824_WIND DS824_PRES TD9636_LAT TD9636_LON TD9636_STAGE TD9636_WIND TD9636_PRES TD9635_LAT TD9635_LON TD9635_WIND TD9635_PRES TD9635_ROCI NEUMANN_LAT NEUMANN_LON NEUMANN_CLASS NEUMANN_WIND NEUMANN_PRES MLC_LAT MLC_LON MLC_CLASS MLC_WIND MLC_PRES USA_GUST BOM_GUST BOM_GUST_PER REUNION_GUST REUNION_GUST_PER USA_SEAHGT USA_SEARAD_NE USA_SEARAD_SE USA_SEARAD_SW USA_SEARAD_NW STORM_SPEED STORM_DIR
1851260N32298 1851 16 NA NA NOT_NAMED 1851-09-16 12:00:00 TS 31.5000 -62.5000 main 1291 1291 _____________O -1 31.5000 -62.5000 TS 35 1 48
1851260N32298 1851 16 NA NA NOT_NAMED 1851-09-16 15:00:00 TS 31.5375 -62.4625 main 1291 1291 _____________P -1 31.5375 -62.4625 TS 35 1 40
1851260N32298 1851 16 NA NA NOT_NAMED 1851-09-16 18:00:00 TS 31.6000 -62.4000 main 1295 1295 _____________O -1 31.6000 -62.4000 TS 35 2 40
1851260N32298 1851 16 NA NA NOT_NAMED 1851-09-16 21:00:00 TS 31.7000 -62.3001 main 1299 1299 _____________P -1 31.7000 -62.3001 TS 35 3 40
1851260N32298 1851 16 NA NA NOT_NAMED 1851-09-17 00:00:00 TS 31.8000 -62.2000 main 1301 1296 _____________O -1 31.8000 -62.2000 TS 35 2 40
1851260N32298 1851 16 NA NA NOT_NAMED 1851-09-17 03:00:00 TS 31.8575 -62.1425 main 1296 1296 _____________P -1 31.8575 -62.1425 TS 35 1 40
1851260N32298 1851 16 NA NA NOT_NAMED 1851-09-17 06:00:00 TS 31.9000 -62.1000 main 1296 1286 _____________O -1 31.9000 -62.1000 TS 35 1 37
1851260N32298 1851 16 NA NA NOT_NAMED 1851-09-17 09:00:00 TS 31.9575 -62.0500 main 1291 1286 _____________P -1 31.9575 -62.0500 TS 35 1 40
1851260N32298 1851 16 NA NA NOT_NAMED 1851-09-17 12:00:00 TS 32.0000 -62.0000 main 1291 1291 _____________O -1 32.0000 -62.0000 TS 35 1 54
1851260N32298 1851 16 NA NA NOT_NAMED 1851-09-17 15:00:00 TS 32.0150 -61.9575 main 1291 1291 _____________P -1 32.0150 -61.9575 TS 35 1 90
1851260N32298 1851 16 NA NA NOT_NAMED 1851-09-17 18:00:00 TS 32.0000 -61.9000 main 1296 1296 _____________O -1 32.0000 -61.9000 TS 35 1 116
1851260N32298 1851 16 NA NA NOT_NAMED 1851-09-17 21:00:00 TS 31.9500 -61.8000 main 1301 1301 _____________P -1 31.9500 -61.8000 TS 35 2 121
1851260N32298 1851 16 NA NA NOT_NAMED 1851-09-18 00:00:00 TS 31.9000 -61.7000 main 1315 1315 _____________O -1 31.9000 -61.7000 TS 35 1 111
1851260N32298 1851 16 NA NA NOT_NAMED 1851-09-18 03:00:00 TS 31.9000 -61.6425 main 1320 1320 _____________P -1 31.9000 -61.6425 TS 37 1 90
1851260N32298 1851 16 NA NA NOT_NAMED 1851-09-18 06:00:00 TS 31.9000 -61.6000 main 1320 1320 _____________O -1 31.9000 -61.6000 TS 40 1 113
1851260N32298 1851 16 NA NA NOT_NAMED 1851-09-18 09:00:00 TS 31.8650 -61.5500 main 1325 1320 _____________P -1 31.8650 -61.5500 TS 40 1 140
1851260N32298 1851 16 NA NA NOT_NAMED 1851-09-18 12:00:00 TS 31.8000 -61.5000 main 1335 1335 _____________O -1 31.8000 -61.5000 TS 40 2 150
1851260N32298 1851 16 NA NA NOT_NAMED 1851-09-18 15:00:00 TS 31.7075 -61.4500 main 1349 1344 _____________P -1 31.7075 -61.4500 TS 40 2 155
1851260N32298 1851 16 NA NA NOT_NAMED 1851-09-18 18:00:00 TS 31.6000 -61.4000 main 1359 1359 _____________O -1 31.6000 -61.4000 TS 40 2 156
1851260N32298 1851 16 NA NA NOT_NAMED 1851-09-18 21:00:00 TS 31.5000 -61.3500 main 1373 1368 _____________P -1 31.5000 -61.3500 TS 40 2 155
1851260N32298 1851 16 NA NA NOT_NAMED 1851-09-19 00:00:00 TS 31.4000 -61.3000 main 1383 1383 _____________O -1 31.4000 -61.3000 TS 40 2 155
1851260N32298 1851 16 NA NA NOT_NAMED 1851-09-19 03:00:00 TS 31.3000 -61.2425 main 1397 1397 _____________P -1 31.3000 -61.2425 TS 42 2 155
1851260N32298 1851 16 NA NA NOT_NAMED 1851-09-19 06:00:00 TS 31.2000 -61.2000 main 1407 1407 _____________O -1 31.2000 -61.2000 TS 45 2 167
1851260N32298 1851 16 NA NA NOT_NAMED 1851-09-19 09:00:00 TS 31.1000 -61.1925 main 1416 1416 _____________P -1 31.1000 -61.1925 TS 45 2 172
1851260N32298 1851 16 NA NA NOT_NAMED 1851-09-19 12:00:00 TS 31.0000 -61.2000 main 1426 1426 _____________O -1 31.0000 -61.2000 TS 45 2 173
1851260N32298 1851 16 NA NA NOT_NAMED 1851-09-19 15:00:00 TS 30.9075 -61.1925 main 1431 1431 _____________P -1 30.9075 -61.1925 TS 45 2 172
1851260N32298 1851 16 NA NA NOT_NAMED 1851-09-19 18:00:00 TS 30.8000 -61.2000 main 1436 1436 _____________O -1 30.8000 -61.2000 TS 45 3 187
1851260N32298 1851 16 NA NA NOT_NAMED 1851-09-19 21:00:00 TS 30.6500 -61.2425 main 1442 1419 _____________P -1 30.6500 -61.2425 TS 45 3 196
1851260N32298 1851 16 NA NA NOT_NAMED 1851-09-20 00:00:00 TS 30.5000 -61.3000 main 1419 1409 _____________O -1 30.5000 -61.3000 TS 45 3 200
1851260N32298 1851 16 NA NA NOT_NAMED 1851-09-20 03:00:00 TS 30.4000 -61.3500 main 1409 1395 _____________P -1 30.4000 -61.3500 TS 45 2 205
1851260N32298 1851 16 NA NA NOT_NAMED 1851-09-20 06:00:00 TS 30.3000 -61.4000 main 1395 1385 _____________O -1 30.3000 -61.4000 TS 45 3 195
1851260N32298 1851 16 NA NA NOT_NAMED 1851-09-20 09:00:00 TS 30.1500 -61.4350 main 1374 1360 _____________P -1 30.1500 -61.4350 TS 45 3 196
1851260N32298 1851 16 NA NA NOT_NAMED 1851-09-20 12:00:00 TS 30.0000 -61.5000 main 1360 1347 _____________O -1 30.0000 -61.5000 TS 45 3 214
1851260N32298 1851 16 NA NA NOT_NAMED 1851-09-20 15:00:00 TS 29.9000 -61.6274 main 1347 1330 _____________P -1 29.9000 -61.6274 TS 45 3 233
1851260N32298 1851 16 NA NA NOT_NAMED 1851-09-20 18:00:00 TS 29.8000 -61.8000 main 1330 1314 _____________O -1 29.8000 -61.8000 TS 45 4 232
1851260N32298 1851 16 NA NA NOT_NAMED 1851-09-20 21:00:00 TS 29.6500 -61.9926 main 1314 1287 _____________P -1 29.6500 -61.9926 TS 45 5 229
1851260N32298 1851 16 NA NA NOT_NAMED 1851-09-21 00:00:00 TS 29.5000 -62.2000 main 1287 1271 _____________O -1 29.5000 -62.2000 TS 45 4 235
1851260N32298 1851 16 NA NA NOT_NAMED 1851-09-21 03:00:00 TS 29.4000 -62.3999 main 1271 1255 _____________P -1 29.4000 -62.3999 TS 45 4 240
1851260N32298 1851 16 NA NA NOT_NAMED 1851-09-21 06:00:00 TS 29.3000 -62.6000 main 1255 1229 _____________O -1 29.3000 -62.6000 TS 45 4 234
1851260N32298 1851 16 NA NA NOT_NAMED 1851-09-21 09:00:00 TS 29.1350 -62.8151 main 1229 1213 _____________P -1 29.1350 -62.8151 TS 45 5 229
1851260N32298 1851 16 NA NA NOT_NAMED 1851-09-21 12:00:00 TS 29.0000 -63.0000 main 1213 1211 _____________O -1 29.0000 -63.0000 TS 45 3 238
1851260N32298 1851 16 NA NA NOT_NAMED 1851-09-21 15:00:00 TS 28.9774 -63.1074 main 1211 1209 _____________P -1 28.9774 -63.1074 TS 45 2 270
1851260N32298 1851 16 NA NA NOT_NAMED 1851-09-21 18:00:00 TS 29.0000 -63.2000 main 1209 1207 _____________O -1 29.0000 -63.2000 TS 45 2 276
1851260N32298 1851 16 NA NA NOT_NAMED 1851-09-21 21:00:00 TS 29.0000 -63.3500 main 1207 1203 _____________P -1 29.0000 -63.3500 TS 45 3 270
1851260N32298 1851 16 NA NA NOT_NAMED 1851-09-22 00:00:00 TS 29.0000 -63.5000 main 1203 1201 _____________O -1 29.0000 -63.5000 TS 45 2 270
1851260N32298 1851 16 NA NA NOT_NAMED 1851-09-22 03:00:00 TS 29.0000 -63.6000 main 1201 1200 _____________P -1 29.0000 -63.6000 TS 45 2 270
1851260N32298 1851 16 NA NA NOT_NAMED 1851-09-22 06:00:00 TS 29.0000 -63.7000 main 1200 1198 _____________O -1 29.0000 -63.7000 TS 45 2 262
1851260N32298 1851 16 NA NA NOT_NAMED 1851-09-22 09:00:00 TS 28.9700 -63.8352 main 1198 1195 _____________P -1 28.9700 -63.8352 TS 45 3 270
1851260N32298 1851 16 NA NA NOT_NAMED 1851-09-22 12:00:00 TS 29.0000 -64.0000 main 1195 1194 _____________O -1 29.0000 -64.0000 TS 45 4 304
1851260N32298 1851 16 NA NA NOT_NAMED 1851-09-22 15:00:00 TS 29.1775 -64.1924 main 1215 1215 _____________P -1 29.1775 -64.1924 TS 45 5 319
1851260N32298 1851 16 NA NA NOT_NAMED 1851-09-22 18:00:00 TS 29.4000 -64.4000 main 1232 1227 _____________O -1 29.4000 -64.4000 TS 45 5 316
1851260N32298 1851 16 NA NA NOT_NAMED 1851-09-22 21:00:00 TS 29.5500 -64.6002 main 1233 1207 _____________P -1 29.5500 -64.6002 TS 45 5 311
1851260N32298 1851 16 NA NA NOT_NAMED 1851-09-23 00:00:00 TS 29.7000 -64.8000 main 1207 1178 _____________O -1 29.7000 -64.8000 TS 45 5 314
1851260N32298 1851 16 NA NA NOT_NAMED 1851-09-23 03:00:00 TS 29.8925 -65.0075 main 1178 1149 _____________P -1 29.8925 -65.0075 TS 45 5 319
1851260N32298 1851 16 NA NA NOT_NAMED 1851-09-23 06:00:00 TS 30.1000 -65.2000 main 1149 1121 _____________O -1 30.1000 -65.2000 TS 45 5 324
1851260N32298 1851 16 NA NA NOT_NAMED 1851-09-23 09:00:00 TS 30.3150 -65.3650 main 1121 1100 _____________P -1 30.3150 -65.3650 TS 42 5 327
1851260N32298 1851 16 NA NA NOT_NAMED 1851-09-23 12:00:00 TS 30.5000 -65.5000 main 1100 1086 _____________O -1 30.5000 -65.5000 TS 40 4 323
1851260N32298 1851 16 NA NA NOT_NAMED 1851-09-23 15:00:00 TS 30.6075 -65.6151 main 1086 1071 _____________P -1 30.6075 -65.6151 TS 40 3 319
1851260N32298 1851 16 NA NA NOT_NAMED 1851-09-23 18:00:00 TS 30.7000 -65.7000 main 1071 1057 _____________O -1 30.7000 -65.7000 TS 40 3 332
1851260N32298 1851 16 NA NA NOT_NAMED 1851-09-23 21:00:00 TS 30.8500 -65.7575 main 1057 1045 _____________P -1 30.8500 -65.7575 TS 40 3 344
1851260N32298 1851 16 NA NA NOT_NAMED 1851-09-24 00:00:00 TS 31.0000 -65.8000 main 1045 1039 _____________O -1 31.0000 -65.8000 TS 40 3 342
1851260N32298 1851 16 NA NA NOT_NAMED 1851-09-24 03:00:00 TS 31.1000 -65.8500 main 1031 1025 _____________P -1 31.1000 -65.8500 TS 40 2 335
1851260N32298 1851 16 NA NA NOT_NAMED 1851-09-24 06:00:00 TS 31.2000 -65.9000 main 1025 1011 _____________O -1 31.2000 -65.9000 TS 40 2 337
1851260N32298 1851 16 NA NA NOT_NAMED 1851-09-24 09:00:00 TS 31.3125 -65.9575 main 1011 999 _____________P -1 31.3125 -65.9575 TS 40 3 344
1851260N32298 1851 16 NA NA NOT_NAMED 1851-09-24 12:00:00 TS 31.5000 -66.0000 main 999 982 _____________O -1 31.5000 -66.0000 TS 40 5 353
1851260N32298 1851 16 NA NA NOT_NAMED 1851-09-24 15:00:00 TS 31.8125 -66.0224 main 982 961 _____________P -1 31.8125 -66.0224 TS 40 7 0
1851260N32298 1851 16 NA NA NOT_NAMED 1851-09-24 18:00:00 TS 32.2000 -66.0000 main 961 949 _____________O -1 32.2000 -66.0000 TS 40 8 7
1851260N32298 1851 16 NA NA NOT_NAMED 1851-09-24 21:00:00 TS 32.5925 -65.9077 main 949 940 _____________P -1 32.5925 -65.9077 TS 40 8 12
1851260N32298 1851 16 NA NA NOT_NAMED 1851-09-25 00:00:00 TS 33.0000 -65.8000 main 940 924 _____________O -1 33.0000 -65.8000 TS 40 8 9
1851260N32298 1851 16 NA NA NOT_NAMED 1851-09-25 03:00:00 TS 33.4075 -65.7498 main 933 919 _____________P -1 33.4075 -65.7498 TS 40 8 6
1851260N32298 1851 16 NA NA NOT_NAMED 1851-09-25 06:00:00 TS 33.8000 -65.7000 main 919 913 _____________O -1 33.8000 -65.7000 TS 40 8 10
1851260N32298 1851 16 NA NA NOT_NAMED 1851-09-25 09:00:00 TS 34.1800 -65.5927 main 916 892 _____________P -1 34.1800 -65.5927 TS 37 7 13
1851260N32298 1851 16 NA NA NOT_NAMED 1851-09-25 12:00:00 TS 34.5000 -65.5000 main 892 872 _____________O -1 34.5000 -65.5000 TS 35 6 9
1851260N32298 1851 16 NA NA NOT_NAMED 1851-09-25 15:00:00 TS 34.7300 -65.4848 main 872 852 _____________P -1 34.7300 -65.4848 TS 35 4 0
1851260N32298 1851 16 NA NA NOT_NAMED 1851-09-25 18:00:00 TS 34.9000 -65.5000 main 852 842 _____________O -1 34.9000 -65.5000 TS 35 3 355
1851260N32298 1851 16 NA NA NOT_NAMED 1851-09-25 21:00:00 TS 35.0575 -65.5000 main 832 822 _____________P -1 35.0575 -65.5000 TS 35 3 0
1851260N32298 1851 16 NA NA NOT_NAMED 1851-09-26 00:00:00 TS 35.2000 -65.5000 main 822 812 _____________O -1 35.2000 -65.5000 TS 35 3 5
1851260N32298 1851 16 NA NA NOT_NAMED 1851-09-26 03:00:00 TS 35.3500 -65.5000 main 802 792 _____________P -1 35.3500 -65.5000 TS 35 3 0
1851260N32298 1851 16 NA NA NOT_NAMED 1851-09-26 06:00:00 TS 35.5000 -65.5000 main 792 782 _____________O -1 35.5000 -65.5000 TS 35 3 10
1851260N32298 1851 16 NA NA NOT_NAMED 1851-09-26 09:00:00 TS 35.6199 -65.4629 main 782 763 _____________P -1 35.6199 -65.4629 TS 32 3 0
1851260N32298 1851 16 NA NA NOT_NAMED 1851-09-26 12:00:00 ET 35.8000 -65.5000 main 763 725 _____________O -1 35.8000 -65.5000 EX 30 5 340
1851260N32298 1851 16 NA NA NOT_NAMED 1851-09-26 15:00:00 ET 36.0973 -65.6756 main 725 673 _____________P -1 36.0973 -65.6756 EX 30 8 330
1851260N32298 1851 16 NA NA NOT_NAMED 1851-09-26 18:00:00 ET 36.5000 -66.0000 main 673 612 _____________O -1 36.5000 -66.0000 EX 30 11 323
1851260N32298 1851 16 NA NA NOT_NAMED 1851-09-26 21:00:00 ET 36.9631 -66.4991 main 602 533 _____________P -1 36.9631 -66.4991 EX 30 13 321
1851260N32298 1851 16 NA NA NOT_NAMED 1851-09-27 00:00:00 ET 37.5000 -67.0000 main 533 471 _____________O -1 37.5000 -67.0000 EX 30 13 331
1851260N32298 1851 16 NA NA NOT_NAMED 1851-09-27 03:00:00 ET 38.0771 -67.2886 main 461 395 _____________P -1 38.0771 -67.2886 EX 27 13 342
1851260N32298 1851 16 NA NA NOT_NAMED 1851-09-27 06:00:00 ET 38.7000 -67.5000 main 395 329 _____________O -1 38.7000 -67.5000 EX 25 13 345
1851260N32298 1851 16 NA NA NOT_NAMED 1851-09-27 09:00:00 ET 39.3453 -67.7361 main 329 252 _____________P -1 39.3453 -67.7361 EX 25 14 343
1851260N32298 1851 16 NA NA NOT_NAMED 1851-09-27 12:00:00 ET 40.0000 -68.0000 main 252 _____________O -1 40.0000 -68.0000 EX 25 14 343

IBTrACS Databaseについて

本データベースは、米国NOAAが公開する1842年以降の世界の熱帯低気圧のベストトラックデータアーカイブInternational Best Track Archive for Climate Stewardship (IBTrACS)を、ウェブで閲覧しやすい形式に変換したものです。

最終更新日:2021-12-06